createdAt,value
2018-09-20T00:02:41.542Z,8.28
2018-09-20T00:08:36.639Z,7.48
2018-09-20T00:14:33.956Z,7.38
2018-09-20T00:20:28.193Z,7.35
2018-09-20T00:26:22.324Z,7.78
2018-09-20T00:32:18.667Z,8.01
2018-09-20T00:38:11.591Z,8.24
2018-09-20T00:44:08.228Z,7.8
2018-09-20T00:50:04.033Z,7.73
2018-09-20T00:55:56.608Z,7.85
2018-09-20T01:01:55.667Z,7.28
2018-09-20T01:07:50.683Z,7.76
2018-09-20T01:13:45.739Z,7.55
2018-09-20T01:19:40.779Z,7.74
2018-09-20T01:25:35.688Z,7.43
2018-09-20T01:31:26.672Z,7.22
2018-09-20T01:37:21.710Z,7.65
2018-09-20T01:43:16.732Z,7.91
2018-09-20T01:49:11.757Z,8
2018-09-20T01:55:06.698Z,7.91
2018-09-20T02:01:01.718Z,7.95
2018-09-20T02:06:56.683Z,8.13
2018-09-20T02:12:51.698Z,8.63
2018-09-20T02:18:46.692Z,8.7
2018-09-20T02:24:41.699Z,8.6
2018-09-20T02:30:36.718Z,8.11
2018-09-20T02:36:31.714Z,8.45
2018-09-20T02:42:26.728Z,8.37
2018-09-20T02:48:21.758Z,7.76
2018-09-20T02:54:16.754Z,7.71
2018-09-20T03:00:11.745Z,9.07
2018-09-20T03:06:06.728Z,8.24
2018-09-20T03:12:01.811Z,9
2018-09-20T03:17:56.799Z,8.32
2018-09-20T03:23:51.777Z,8.91
2018-09-20T03:29:46.783Z,9.25
2018-09-20T03:35:41.866Z,8.37
2018-09-20T03:41:36.795Z,8.42
2018-09-20T03:47:31.783Z,8.4
2018-09-20T03:53:26.815Z,8.41
2018-09-20T03:59:21.848Z,8.31
2018-09-20T04:05:20.875Z,8.1
2018-09-20T04:11:11.798Z,8.35
2018-09-20T04:17:06.844Z,8.7
2018-09-20T04:23:01.816Z,7.79
2018-09-20T04:28:56.831Z,7.66
2018-09-20T04:34:51.838Z,7.77
2018-09-20T04:40:46.878Z,8.39
2018-09-20T04:46:41.873Z,7.68
2018-09-20T04:52:36.871Z,8.95
2018-09-20T04:58:31.884Z,7.87
2018-09-20T05:04:26.867Z,9.25
2018-09-20T05:10:21.921Z,8.5
2018-09-20T05:16:16.906Z,8.41
2018-09-20T05:22:11.856Z,8.06
2018-09-20T05:28:06.986Z,7.45
2018-09-20T05:34:05.974Z,8.53
2018-09-20T05:39:56.889Z,8.4
2018-09-20T05:45:51.897Z,7.32
2018-09-20T05:51:46.912Z,8.38
2018-09-20T05:57:41.896Z,8.91
2018-09-20T06:03:36.905Z,8.33
2018-09-20T06:09:31.907Z,8.77
2018-09-20T06:15:26.902Z,9.1
2018-09-20T06:21:21.953Z,12.57
2018-09-20T06:27:16.979Z,10.81
2018-09-20T06:33:11.925Z,10.21
2018-09-20T06:39:06.963Z,8.08
2018-09-20T06:45:01.943Z,7.97
2018-09-20T06:50:56.978Z,8.25
2018-09-20T06:56:52.004Z,8.36
2018-09-20T07:02:47.029Z,8.78
2018-09-20T07:08:41.966Z,7.86
2018-09-20T07:14:37.006Z,7.97
2018-09-20T07:20:31.986Z,8.85
2018-09-20T07:26:26.982Z,7.87
2018-09-20T07:32:22.005Z,8.11
2018-09-20T07:38:16.983Z,7.83
2018-09-20T07:44:12.006Z,8.94
2018-09-20T07:50:07.018Z,7.72
2018-09-20T07:56:02.028Z,8.7
2018-09-20T08:01:57.021Z,8.43
2018-09-20T08:07:52.034Z,8.15
2018-09-20T08:13:47.026Z,7.9
2018-09-20T08:19:42.054Z,7.89
2018-09-20T08:25:37.084Z,8.27
2018-09-20T08:31:32.057Z,7.48
2018-09-20T08:37:27.126Z,7.59
2018-09-20T08:43:22.051Z,7.54
2018-09-20T08:49:17.098Z,6.73
2018-09-20T08:55:12.074Z,6.86
2018-09-20T09:01:07.108Z,6.71
2018-09-20T09:07:02.073Z,7.47
2018-09-20T09:12:57.074Z,6.44
2018-09-20T09:18:52.084Z,5.92
2018-09-20T09:24:47.124Z,6.04
2018-09-20T09:30:42.156Z,5.58
2018-09-20T09:36:37.120Z,6.56
2018-09-20T09:42:32.126Z,5.19
2018-09-20T09:48:27.148Z,5.74
2018-09-20T09:54:22.178Z,5.21
2018-09-20T10:00:17.149Z,5.56
2018-09-20T10:06:12.160Z,6.27
2018-09-20T10:12:07.171Z,6.14
2018-09-20T10:18:02.158Z,4.84
2018-09-20T10:23:57.212Z,5.51
2018-09-20T10:29:52.162Z,5.29
2018-09-20T10:35:47.243Z,5.78
2018-09-20T10:41:42.188Z,5.83
2018-09-20T10:47:37.212Z,4.8
2018-09-20T10:53:32.187Z,5.35
2018-09-20T10:59:27.196Z,5.4
2018-09-20T11:05:22.219Z,4.84
2018-09-20T11:11:17.186Z,5.07
2018-09-20T11:17:12.202Z,4.96
2018-09-20T11:23:07.219Z,4.67
2018-09-20T11:29:02.268Z,4.84
2018-09-20T11:34:57.233Z,4.82
2018-09-20T11:40:52.273Z,4.86
2018-09-20T11:46:47.411Z,5.35
2018-09-20T11:52:42.261Z,4.53
2018-09-20T11:58:37.253Z,4.65
2018-09-20T12:04:32.260Z,4.01
2018-09-20T12:10:27.266Z,4.11
2018-09-20T12:16:22.277Z,4.33
2018-09-20T12:22:17.327Z,4.36
2018-09-20T12:28:12.295Z,4.17
2018-09-20T12:34:07.278Z,4.9
2018-09-20T12:40:02.338Z,4.46
2018-09-20T12:45:57.303Z,4.77
2018-09-20T12:51:52.359Z,4.14
2018-09-20T12:57:47.338Z,4.38
2018-09-20T13:03:42.320Z,4.59
2018-09-20T13:09:37.310Z,4.27
2018-09-20T13:15:32.344Z,4.07
2018-09-20T13:21:27.357Z,5.2
2018-09-20T13:27:22.351Z,4.35
2018-09-20T13:33:17.368Z,4.07
2018-09-20T13:39:12.353Z,4.12
2018-09-20T13:45:07.367Z,4.48
2018-09-20T13:51:02.379Z,4.22
2018-09-20T13:56:57.390Z,4.78
2018-09-20T14:02:52.367Z,4.52
2018-09-20T14:08:47.430Z,4.29
2018-09-20T14:14:42.418Z,4.1
2018-09-20T14:20:37.402Z,4.3
2018-09-20T14:26:32.407Z,3.62
2018-09-20T14:32:27.422Z,4.45
2018-09-20T14:38:22.425Z,4.37
2018-09-20T14:44:17.430Z,3.99
2018-09-20T14:50:12.456Z,3.95
2018-09-20T14:56:07.449Z,3.98
2018-09-20T15:02:02.467Z,3.94
2018-09-20T15:07:57.469Z,4.08
2018-09-20T15:13:52.471Z,3.99
2018-09-20T15:19:47.461Z,4.35
2018-09-20T15:25:42.500Z,4.18
2018-09-20T15:31:37.486Z,4.79
2018-09-20T15:37:32.516Z,4.43
2018-09-20T15:43:27.512Z,4.78
2018-09-20T15:49:22.508Z,4.95
2018-09-20T15:55:17.500Z,4.65
2018-09-20T16:01:12.529Z,4.8
2018-09-20T16:07:07.519Z,5.28
2018-09-20T16:13:02.552Z,4.9
2018-09-20T16:18:57.560Z,6.43
2018-09-20T16:24:52.520Z,5.81
2018-09-20T16:30:47.560Z,5.64
2018-09-20T16:36:42.597Z,6.03
2018-09-20T16:42:37.558Z,6.05
2018-09-20T16:48:32.574Z,6.55
2018-09-20T16:54:27.566Z,6.43
2018-09-20T17:00:22.582Z,6.41
2018-09-20T17:06:17.640Z,6.24
2018-09-20T17:12:12.593Z,7.35
2018-09-20T17:18:07.575Z,7.25
2018-09-20T17:24:02.600Z,6.57
2018-09-20T17:29:57.620Z,7
2018-09-20T17:35:52.584Z,6.34
2018-09-20T17:41:47.615Z,6.94
2018-09-20T17:47:42.661Z,6.74
2018-09-20T17:53:37.672Z,7.39
2018-09-20T17:59:32.619Z,7
2018-09-20T18:05:27.669Z,6.77
2018-09-20T18:11:22.637Z,7.39
2018-09-20T18:17:17.647Z,7.26
2018-09-20T18:23:12.667Z,7.87
2018-09-20T18:29:07.665Z,6.96
2018-09-20T18:35:02.703Z,8.04
2018-09-20T18:40:57.665Z,7.18
2018-09-20T18:46:52.689Z,7.94
2018-09-20T18:52:47.672Z,7.23
2018-09-20T18:58:42.712Z,7.56
2018-09-20T19:04:37.715Z,7.48
2018-09-20T19:10:32.683Z,7.69
2018-09-20T19:16:27.741Z,7.21
2018-09-20T19:22:22.712Z,7.89
2018-09-20T19:28:17.722Z,7.82
